sensor_id;sensor_type;location;lat;lon;timestamp;P1;durP1;ratioP1;P2;durP2;ratioP2
38222;SDS011;24024;51.186;6.458;2023-11-19T00:01:22;11.10;;;6.03;;
38222;SDS011;24024;51.186;6.458;2023-11-19T00:03:49;4.43;;;2.40;;
38222;SDS011;24024;51.186;6.458;2023-11-19T00:06:17;5.35;;;2.33;;
38222;SDS011;24024;51.186;6.458;2023-11-19T00:08:43;4.50;;;2.70;;
38222;SDS011;24024;51.186;6.458;2023-11-19T00:11:10;5.50;;;2.63;;
38222;SDS011;24024;51.186;6.458;2023-11-19T00:13:41;4.72;;;2.60;;
38222;SDS011;24024;51.186;6.458;2023-11-19T00:16:11;6.00;;;2.58;;
38222;SDS011;24024;51.186;6.458;2023-11-19T00:18:38;6.28;;;3.20;;
38222;SDS011;24024;51.186;6.458;2023-11-19T00:21:05;3.83;;;2.40;;
38222;SDS011;24024;51.186;6.458;2023-11-19T00:23:37;6.15;;;3.08;;
38222;SDS011;24024;51.186;6.458;2023-11-19T00:26:07;6.15;;;2.05;;
38222;SDS011;24024;51.186;6.458;2023-11-19T00:28:34;5.85;;;2.50;;
38222;SDS011;24024;51.186;6.458;2023-11-19T00:31:04;6.05;;;2.63;;
38222;SDS011;24024;51.186;6.458;2023-11-19T00:33:31;4.38;;;2.50;;
38222;SDS011;24024;51.186;6.458;2023-11-19T00:36:00;4.78;;;1.90;;
38222;SDS011;24024;51.186;6.458;2023-11-19T00:38:29;5.38;;;2.45;;
38222;SDS011;24024;51.186;6.458;2023-11-19T00:40:55;5.03;;;2.22;;
38222;SDS011;24024;51.186;6.458;2023-11-19T00:43:22;6.22;;;2.10;;
38222;SDS011;24024;51.186;6.458;2023-11-19T00:45:49;4.55;;;2.08;;
38222;SDS011;24024;51.186;6.458;2023-11-19T00:48:17;3.22;;;1.60;;
38222;SDS011;24024;51.186;6.458;2023-11-19T00:50:43;2.97;;;1.80;;
38222;SDS011;24024;51.186;6.458;2023-11-19T00:53:11;3.65;;;1.83;;
38222;SDS011;24024;51.186;6.458;2023-11-19T00:55:43;4.25;;;1.83;;
38222;SDS011;24024;51.186;6.458;2023-11-19T00:58:12;4.65;;;2.00;;
38222;SDS011;24024;51.186;6.458;2023-11-19T01:00:39;5.97;;;3.55;;
38222;SDS011;24024;51.186;6.458;2023-11-19T01:03:06;3.17;;;1.27;;
38222;SDS011;24024;51.186;6.458;2023-11-19T01:05:33;4.93;;;1.92;;
38222;SDS011;24024;51.186;6.458;2023-11-19T01:08:00;4.03;;;1.70;;
38222;SDS011;24024;51.186;6.458;2023-11-19T01:10:27;6.60;;;1.60;;
38222;SDS011;24024;51.186;6.458;2023-11-19T01:12:55;3.17;;;1.33;;
38222;SDS011;24024;51.186;6.458;2023-11-19T01:15:22;5.00;;;1.70;;
38222;SDS011;24024;51.186;6.458;2023-11-19T01:17:49;3.17;;;1.27;;
38222;SDS011;24024;51.186;6.458;2023-11-19T01:20:18;4.18;;;1.58;;
38222;SDS011;24024;51.186;6.458;2023-11-19T01:22:50;3.83;;;1.75;;
38222;SDS011;24024;51.186;6.458;2023-11-19T01:25:19;3.97;;;1.70;;
38222;SDS011;24024;51.186;6.458;2023-11-19T01:27:46;4.80;;;1.77;;
38222;SDS011;24024;51.186;6.458;2023-11-19T01:30:15;7.25;;;1.65;;
38222;SDS011;24024;51.186;6.458;2023-11-19T01:32:44;4.07;;;1.65;;
38222;SDS011;24024;51.186;6.458;2023-11-19T01:35:11;5.05;;;1.65;;
38222;SDS011;24024;51.186;6.458;2023-11-19T01:40:20;3.22;;;1.55;;
38222;SDS011;24024;51.186;6.458;2023-11-19T01:42:49;3.40;;;1.88;;
38222;SDS011;24024;51.186;6.458;2023-11-19T01:45:21;5.30;;;2.08;;
38222;SDS011;24024;51.186;6.458;2023-11-19T01:47:54;4.60;;;1.85;;
38222;SDS011;24024;51.186;6.458;2023-11-19T01:50:24;5.55;;;2.08;;
38222;SDS011;24024;51.186;6.458;2023-11-19T01:52:52;7.00;;;2.80;;
38222;SDS011;24024;51.186;6.458;2023-11-19T01:55:20;6.40;;;2.10;;
38222;SDS011;24024;51.186;6.458;2023-11-19T01:57:49;8.25;;;2.28;;
38222;SDS011;24024;51.186;6.458;2023-11-19T02:00:17;7.22;;;2.97;;
38222;SDS011;24024;51.186;6.458;2023-11-19T02:02:46;7.85;;;2.38;;
38222;SDS011;24024;51.186;6.458;2023-11-19T02:05:18;9.88;;;2.55;;
38222;SDS011;24024;51.186;6.458;2023-11-19T02:07:45;6.95;;;2.28;;
38222;SDS011;24024;51.186;6.458;2023-11-19T02:10:12;8.07;;;2.50;;
38222;SDS011;24024;51.186;6.458;2023-11-19T02:12:40;9.65;;;2.80;;
38222;SDS011;24024;51.186;6.458;2023-11-19T02:15:10;9.07;;;2.40;;
38222;SDS011;24024;51.186;6.458;2023-11-19T02:17:37;14.95;;;3.47;;
38222;SDS011;24024;51.186;6.458;2023-11-19T02:20:04;12.32;;;3.10;;
38222;SDS011;24024;51.186;6.458;2023-11-19T02:22:35;11.27;;;2.92;;
38222;SDS011;24024;51.186;6.458;2023-11-19T02:25:07;8.50;;;2.65;;
38222;SDS011;24024;51.186;6.458;2023-11-19T02:27:43;8.82;;;2.72;;
38222;SDS011;24024;51.186;6.458;2023-11-19T02:30:22;11.18;;;3.13;;
38222;SDS011;24024;51.186;6.458;2023-11-19T02:32:55;11.70;;;3.30;;
38222;SDS011;24024;51.186;6.458;2023-11-19T02:35:24;13.25;;;4.68;;
38222;SDS011;24024;51.186;6.458;2023-11-19T02:37:54;12.27;;;3.25;;
38222;SDS011;24024;51.186;6.458;2023-11-19T02:40:23;10.90;;;3.03;;
38222;SDS011;24024;51.186;6.458;2023-11-19T02:42:51;12.85;;;2.97;;
38222;SDS011;24024;51.186;6.458;2023-11-19T02:45:19;12.35;;;3.13;;
38222;SDS011;24024;51.186;6.458;2023-11-19T02:47:45;11.82;;;2.78;;
38222;SDS011;24024;51.186;6.458;2023-11-19T02:50:12;7.18;;;2.10;;
38222;SDS011;24024;51.186;6.458;2023-11-19T02:52:44;10.02;;;2.72;;
38222;SDS011;24024;51.186;6.458;2023-11-19T02:55:12;12.43;;;2.97;;
38222;SDS011;24024;51.186;6.458;2023-11-19T02:57:41;12.02;;;3.00;;
38222;SDS011;24024;51.186;6.458;2023-11-19T03:00:18;17.42;;;3.17;;
38222;SDS011;24024;51.186;6.458;2023-11-19T03:02:50;14.55;;;3.17;;
38222;SDS011;24024;51.186;6.458;2023-11-19T03:05:31;14.48;;;3.17;;
38222;SDS011;24024;51.186;6.458;2023-11-19T03:07:58;12.77;;;2.90;;
38222;SDS011;24024;51.186;6.458;2023-11-19T03:10:25;11.85;;;2.53;;
38222;SDS011;24024;51.186;6.458;2023-11-19T03:12:55;18.83;;;3.17;;
38222;SDS011;24024;51.186;6.458;2023-11-19T03:15:23;10.32;;;2.70;;
38222;SDS011;24024;51.186;6.458;2023-11-19T03:17:50;13.77;;;3.00;;
38222;SDS011;24024;51.186;6.458;2023-11-19T03:20:16;15.77;;;2.55;;
38222;SDS011;24024;51.186;6.458;2023-11-19T03:22:47;14.60;;;2.65;;
38222;SDS011;24024;51.186;6.458;2023-11-19T03:25:17;15.40;;;2.83;;
38222;SDS011;24024;51.186;6.458;2023-11-19T03:27:46;15.90;;;2.70;;
38222;SDS011;24024;51.186;6.458;2023-11-19T03:30:13;17.50;;;2.70;;
38222;SDS011;24024;51.186;6.458;2023-11-19T03:32:40;17.77;;;3.10;;
38222;SDS011;24024;51.186;6.458;2023-11-19T03:35:07;14.70;;;2.95;;
38222;SDS011;24024;51.186;6.458;2023-11-19T03:37:35;19.05;;;3.35;;
38222;SDS011;24024;51.186;6.458;2023-11-19T03:40:02;19.42;;;3.58;;
38222;SDS011;24024;51.186;6.458;2023-11-19T03:42:30;16.42;;;2.90;;
38222;SDS011;24024;51.186;6.458;2023-11-19T03:44:57;20.25;;;3.03;;
38222;SDS011;24024;51.186;6.458;2023-11-19T03:47:24;17.80;;;3.03;;
38222;SDS011;24024;51.186;6.458;2023-11-19T03:49:55;17.58;;;3.15;;
38222;SDS011;24024;51.186;6.458;2023-11-19T03:52:22;25.05;;;3.25;;
38222;SDS011;24024;51.186;6.458;2023-11-19T03:54:53;16.33;;;2.95;;
38222;SDS011;24024;51.186;6.458;2023-11-19T03:57:21;18.48;;;3.38;;
38222;SDS011;24024;51.186;6.458;2023-11-19T03:59:48;20.35;;;3.25;;
38222;SDS011;24024;51.186;6.458;2023-11-19T04:02:15;12.13;;;2.60;;
38222;SDS011;24024;51.186;6.458;2023-11-19T04:04:43;20.27;;;3.00;;
38222;SDS011;24024;51.186;6.458;2023-11-19T04:07:10;19.73;;;3.15;;
38222;SDS011;24024;51.186;6.458;2023-11-19T04:09:37;20.45;;;3.17;;
38222;SDS011;24024;51.186;6.458;2023-11-19T04:12:06;14.85;;;2.67;;
38222;SDS011;24024;51.186;6.458;2023-11-19T04:14:33;15.52;;;2.75;;
38222;SDS011;24024;51.186;6.458;2023-11-19T04:17:00;19.20;;;3.70;;
38222;SDS011;24024;51.186;6.458;2023-11-19T04:19:29;15.38;;;2.70;;
38222;SDS011;24024;51.186;6.458;2023-11-19T04:21:55;16.85;;;3.22;;
38222;SDS011;24024;51.186;6.458;2023-11-19T04:24:23;18.50;;;3.40;;
38222;SDS011;24024;51.186;6.458;2023-11-19T04:26:50;13.50;;;3.10;;
38222;SDS011;24024;51.186;6.458;2023-11-19T04:29:22;19.33;;;2.88;;
38222;SDS011;24024;51.186;6.458;2023-11-19T04:31:49;19.58;;;3.10;;
38222;SDS011;24024;51.186;6.458;2023-11-19T04:34:18;15.50;;;3.65;;
38222;SDS011;24024;51.186;6.458;2023-11-19T04:36:45;21.92;;;3.22;;
38222;SDS011;24024;51.186;6.458;2023-11-19T04:39:12;20.17;;;3.25;;
38222;SDS011;24024;51.186;6.458;2023-11-19T04:41:47;23.83;;;3.78;;
38222;SDS011;24024;51.186;6.458;2023-11-19T04:44:15;23.17;;;3.28;;
38222;SDS011;24024;51.186;6.458;2023-11-19T04:46:43;17.40;;;2.97;;
38222;SDS011;24024;51.186;6.458;2023-11-19T04:49:13;12.02;;;2.63;;
38222;SDS011;24024;51.186;6.458;2023-11-19T04:51:45;21.77;;;3.25;;
38222;SDS011;24024;51.186;6.458;2023-11-19T04:54:15;18.13;;;3.20;;
38222;SDS011;24024;51.186;6.458;2023-11-19T04:56:44;21.17;;;3.72;;
38222;SDS011;24024;51.186;6.458;2023-11-19T04:59:12;22.52;;;3.92;;
38222;SDS011;24024;51.186;6.458;2023-11-19T05:01:39;21.80;;;3.42;;
38222;SDS011;24024;51.186;6.458;2023-11-19T05:04:06;17.85;;;2.90;;
38222;SDS011;24024;51.186;6.458;2023-11-19T05:06:34;28.38;;;4.47;;
38222;SDS011;24024;51.186;6.458;2023-11-19T05:09:01;21.15;;;3.28;;
38222;SDS011;24024;51.186;6.458;2023-11-19T05:11:32;17.60;;;3.10;;
38222;SDS011;24024;51.186;6.458;2023-11-19T05:14:17;20.58;;;3.47;;
38222;SDS011;24024;51.186;6.458;2023-11-19T05:16:46;18.42;;;3.92;;
38222;SDS011;24024;51.186;6.458;2023-11-19T05:19:12;21.45;;;3.58;;
38222;SDS011;24024;51.186;6.458;2023-11-19T05:21:45;18.48;;;3.28;;
38222;SDS011;24024;51.186;6.458;2023-11-19T05:24:12;18.25;;;3.15;;
38222;SDS011;24024;51.186;6.458;2023-11-19T05:26:39;18.52;;;3.40;;
38222;SDS011;24024;51.186;6.458;2023-11-19T05:29:06;23.00;;;3.30;;
38222;SDS011;24024;51.186;6.458;2023-11-19T05:31:33;28.65;;;3.65;;
38222;SDS011;24024;51.186;6.458;2023-11-19T05:34:03;18.00;;;3.58;;
38222;SDS011;24024;51.186;6.458;2023-11-19T05:36:30;19.20;;;3.25;;
38222;SDS011;24024;51.186;6.458;2023-11-19T05:38:56;14.20;;;2.88;;
38222;SDS011;24024;51.186;6.458;2023-11-19T05:41:23;20.65;;;3.40;;
38222;SDS011;24024;51.186;6.458;2023-11-19T05:43:50;19.02;;;3.30;;
38222;SDS011;24024;51.186;6.458;2023-11-19T05:46:17;20.55;;;3.28;;
38222;SDS011;24024;51.186;6.458;2023-11-19T05:48:46;16.67;;;2.95;;
38222;SDS011;24024;51.186;6.458;2023-11-19T05:51:15;19.83;;;3.08;;
38222;SDS011;24024;51.186;6.458;2023-11-19T05:53:42;19.90;;;3.65;;
38222;SDS011;24024;51.186;6.458;2023-11-19T05:56:09;26.90;;;3.13;;
38222;SDS011;24024;51.186;6.458;2023-11-19T05:58:36;22.27;;;4.38;;
38222;SDS011;24024;51.186;6.458;2023-11-19T06:01:05;21.50;;;3.58;;
38222;SDS011;24024;51.186;6.458;2023-11-19T06:03:37;26.15;;;3.05;;
38222;SDS011;24024;51.186;6.458;2023-11-19T06:06:04;18.25;;;3.30;;
38222;SDS011;24024;51.186;6.458;2023-11-19T06:08:34;25.00;;;3.85;;
38222;SDS011;24024;51.186;6.458;2023-11-19T06:11:03;18.95;;;3.50;;
38222;SDS011;24024;51.186;6.458;2023-11-19T06:13:33;22.38;;;3.28;;
38222;SDS011;24024;51.186;6.458;2023-11-19T06:16:03;21.48;;;3.30;;
38222;SDS011;24024;51.186;6.458;2023-11-19T06:18:30;22.83;;;3.75;;
38222;SDS011;24024;51.186;6.458;2023-11-19T06:20:57;26.52;;;4.05;;
38222;SDS011;24024;51.186;6.458;2023-11-19T06:23:24;23.50;;;4.03;;
38222;SDS011;24024;51.186;6.458;2023-11-19T06:25:51;22.25;;;3.70;;
38222;SDS011;24024;51.186;6.458;2023-11-19T06:28:19;22.08;;;3.80;;
38222;SDS011;24024;51.186;6.458;2023-11-19T06:30:46;21.20;;;3.28;;
38222;SDS011;24024;51.186;6.458;2023-11-19T06:33:14;20.52;;;3.78;;
38222;SDS011;24024;51.186;6.458;2023-11-19T06:35:41;20.48;;;3.55;;
38222;SDS011;24024;51.186;6.458;2023-11-19T06:38:08;17.80;;;3.42;;
38222;SDS011;24024;51.186;6.458;2023-11-19T06:40:37;21.95;;;3.35;;
38222;SDS011;24024;51.186;6.458;2023-11-19T06:43:04;16.42;;;3.05;;
38222;SDS011;24024;51.186;6.458;2023-11-19T06:45:31;31.08;;;3.80;;
38222;SDS011;24024;51.186;6.458;2023-11-19T06:48:00;22.20;;;3.95;;
38222;SDS011;24024;51.186;6.458;2023-11-19T06:50:29;25.40;;;3.38;;
38222;SDS011;24024;51.186;6.458;2023-11-19T06:52:58;20.73;;;3.67;;
38222;SDS011;24024;51.186;6.458;2023-11-19T06:55:26;25.75;;;4.00;;
38222;SDS011;24024;51.186;6.458;2023-11-19T06:57:53;22.90;;;4.28;;
38222;SDS011;24024;51.186;6.458;2023-11-19T07:00:20;24.77;;;3.90;;
38222;SDS011;24024;51.186;6.458;2023-11-19T07:02:51;23.15;;;4.20;;
38222;SDS011;24024;51.186;6.458;2023-11-19T07:05:18;19.38;;;3.90;;
38222;SDS011;24024;51.186;6.458;2023-11-19T07:07:47;25.73;;;5.43;;
38222;SDS011;24024;51.186;6.458;2023-11-19T07:10:14;30.20;;;6.57;;
38222;SDS011;24024;51.186;6.458;2023-11-19T07:12:41;31.25;;;6.57;;
38222;SDS011;24024;51.186;6.458;2023-11-19T07:15:11;28.23;;;5.53;;
38222;SDS011;24024;51.186;6.458;2023-11-19T07:17:40;21.95;;;3.92;;
38222;SDS011;24024;51.186;6.458;2023-11-19T07:20:07;35.83;;;6.22;;
38222;SDS011;24024;51.186;6.458;2023-11-19T07:22:34;25.27;;;4.35;;
38222;SDS011;24024;51.186;6.458;2023-11-19T07:25:04;24.65;;;4.20;;
38222;SDS011;24024;51.186;6.458;2023-11-19T07:27:34;25.58;;;3.70;;
38222;SDS011;24024;51.186;6.458;2023-11-19T07:30:01;27.08;;;4.35;;
38222;SDS011;24024;51.186;6.458;2023-11-19T07:32:27;25.65;;;4.07;;
38222;SDS011;24024;51.186;6.458;2023-11-19T07:34:54;26.48;;;4.35;;
38222;SDS011;24024;51.186;6.458;2023-11-19T07:37:22;27.60;;;4.55;;
38222;SDS011;24024;51.186;6.458;2023-11-19T07:39:49;24.55;;;3.95;;
38222;SDS011;24024;51.186;6.458;2023-11-19T07:42:15;30.35;;;4.57;;
38222;SDS011;24024;51.186;6.458;2023-11-19T07:44:44;29.27;;;4.25;;
38222;SDS011;24024;51.186;6.458;2023-11-19T07:47:14;27.75;;;4.20;;
38222;SDS011;24024;51.186;6.458;2023-11-19T07:49:43;33.90;;;4.43;;
38222;SDS011;24024;51.186;6.458;2023-11-19T07:52:12;32.55;;;3.90;;
38222;SDS011;24024;51.186;6.458;2023-11-19T07:54:42;27.70;;;4.60;;
38222;SDS011;24024;51.186;6.458;2023-11-19T07:57:08;21.95;;;4.07;;
38222;SDS011;24024;51.186;6.458;2023-11-19T07:59:40;26.98;;;3.85;;
38222;SDS011;24024;51.186;6.458;2023-11-19T08:02:07;25.25;;;3.72;;
38222;SDS011;24024;51.186;6.458;2023-11-19T08:04:36;27.10;;;3.70;;
38222;SDS011;24024;51.186;6.458;2023-11-19T08:07:06;29.05;;;4.20;;
38222;SDS011;24024;51.186;6.458;2023-11-19T08:09:33;27.42;;;4.35;;
38222;SDS011;24024;51.186;6.458;2023-11-19T08:12:03;15.15;;;3.22;;
38222;SDS011;24024;51.186;6.458;2023-11-19T08:14:30;32.30;;;5.90;;
38222;SDS011;24024;51.186;6.458;2023-11-19T08:16:57;26.30;;;4.13;;
38222;SDS011;24024;51.186;6.458;2023-11-19T08:19:25;16.42;;;3.28;;
38222;SDS011;24024;51.186;6.458;2023-11-19T08:21:55;26.63;;;4.05;;
38222;SDS011;24024;51.186;6.458;2023-11-19T08:24:22;23.98;;;3.55;;
38222;SDS011;24024;51.186;6.458;2023-11-19T08:26:49;22.77;;;4.13;;
38222;SDS011;24024;51.186;6.458;2023-11-19T08:29:21;17.60;;;3.30;;
38222;SDS011;24024;51.186;6.458;2023-11-19T08:31:47;24.30;;;4.68;;
38222;SDS011;24024;51.186;6.458;2023-11-19T08:34:14;19.05;;;3.50;;
38222;SDS011;24024;51.186;6.458;2023-11-19T08:36:41;28.85;;;3.90;;
38222;SDS011;24024;51.186;6.458;2023-11-19T08:39:09;27.88;;;3.97;;
38222;SDS011;24024;51.186;6.458;2023-11-19T08:41:41;21.13;;;4.10;;
38222;SDS011;24024;51.186;6.458;2023-11-19T08:44:08;27.33;;;3.97;;
38222;SDS011;24024;51.186;6.458;2023-11-19T08:46:34;22.80;;;3.88;;
38222;SDS011;24024;51.186;6.458;2023-11-19T08:49:01;24.58;;;3.85;;
38222;SDS011;24024;51.186;6.458;2023-11-19T08:51:29;30.52;;;4.20;;
38222;SDS011;24024;51.186;6.458;2023-11-19T08:53:55;25.75;;;4.00;;
38222;SDS011;24024;51.186;6.458;2023-11-19T08:56:24;24.70;;;4.30;;
38222;SDS011;24024;51.186;6.458;2023-11-19T08:58:51;28.88;;;4.55;;
38222;SDS011;24024;51.186;6.458;2023-11-19T09:01:20;24.08;;;3.53;;
38222;SDS011;24024;51.186;6.458;2023-11-19T09:03:47;31.38;;;5.13;;
38222;SDS011;24024;51.186;6.458;2023-11-19T09:06:14;23.30;;;4.18;;
38222;SDS011;24024;51.186;6.458;2023-11-19T09:08:43;27.83;;;4.00;;
38222;SDS011;24024;51.186;6.458;2023-11-19T09:11:10;24.77;;;4.25;;
38222;SDS011;24024;51.186;6.458;2023-11-19T09:13:38;24.95;;;5.10;;
38222;SDS011;24024;51.186;6.458;2023-11-19T09:16:04;25.65;;;3.97;;
38222;SDS011;24024;51.186;6.458;2023-11-19T09:18:31;26.88;;;4.75;;
38222;SDS011;24024;51.186;6.458;2023-11-19T09:20:58;29.48;;;3.92;;
38222;SDS011;24024;51.186;6.458;2023-11-19T09:23:29;20.15;;;3.42;;
38222;SDS011;24024;51.186;6.458;2023-11-19T09:26:01;21.02;;;4.15;;
38222;SDS011;24024;51.186;6.458;2023-11-19T09:28:27;31.73;;;4.50;;
38222;SDS011;24024;51.186;6.458;2023-11-19T09:30:54;28.45;;;3.40;;
38222;SDS011;24024;51.186;6.458;2023-11-19T09:33:23;28.27;;;4.70;;
38222;SDS011;24024;51.186;6.458;2023-11-19T09:35:53;25.83;;;3.97;;
38222;SDS011;24024;51.186;6.458;2023-11-19T09:38:19;28.45;;;4.32;;
38222;SDS011;24024;51.186;6.458;2023-11-19T09:40:46;27.63;;;4.75;;
38222;SDS011;24024;51.186;6.458;2023-11-19T09:43:14;27.52;;;3.97;;
38222;SDS011;24024;51.186;6.458;2023-11-19T09:45:48;29.02;;;5.10;;
38222;SDS011;24024;51.186;6.458;2023-11-19T09:48:16;24.20;;;3.75;;
38222;SDS011;24024;51.186;6.458;2023-11-19T09:50:45;26.05;;;4.68;;
38222;SDS011;24024;51.186;6.458;2023-11-19T09:53:13;27.23;;;3.83;;
38222;SDS011;24024;51.186;6.458;2023-11-19T09:55:43;23.13;;;4.25;;
38222;SDS011;24024;51.186;6.458;2023-11-19T09:58:11;30.10;;;4.22;;
38222;SDS011;24024;51.186;6.458;2023-11-19T10:00:40;21.67;;;3.67;;
38222;SDS011;24024;51.186;6.458;2023-11-19T10:03:07;29.80;;;4.10;;
38222;SDS011;24024;51.186;6.458;2023-11-19T10:05:39;32.67;;;4.72;;
38222;SDS011;24024;51.186;6.458;2023-11-19T10:08:07;26.33;;;4.30;;
38222;SDS011;24024;51.186;6.458;2023-11-19T10:10:34;23.63;;;4.45;;
38222;SDS011;24024;51.186;6.458;2023-11-19T10:13:01;19.00;;;3.65;;
38222;SDS011;24024;51.186;6.458;2023-11-19T10:15:28;26.45;;;4.53;;
38222;SDS011;24024;51.186;6.458;2023-11-19T10:18:03;23.58;;;4.57;;
38222;SDS011;24024;51.186;6.458;2023-11-19T10:20:36;27.52;;;4.03;;
38222;SDS011;24024;51.186;6.458;2023-11-19T10:23:03;23.92;;;3.53;;
38222;SDS011;24024;51.186;6.458;2023-11-19T10:25:30;27.48;;;4.32;;
38222;SDS011;24024;51.186;6.458;2023-11-19T10:27:58;22.35;;;4.03;;
38222;SDS011;24024;51.186;6.458;2023-11-19T10:33:10;23.65;;;4.18;;
38222;SDS011;24024;51.186;6.458;2023-11-19T10:35:51;25.20;;;4.05;;
38222;SDS011;24024;51.186;6.458;2023-11-19T10:38:26;22.63;;;3.63;;
38222;SDS011;24024;51.186;6.458;2023-11-19T10:40:53;25.17;;;4.07;;
38222;SDS011;24024;51.186;6.458;2023-11-19T10:43:21;23.23;;;3.70;;
38222;SDS011;24024;51.186;6.458;2023-11-19T10:45:52;26.02;;;4.18;;
38222;SDS011;24024;51.186;6.458;2023-11-19T10:48:34;20.33;;;3.85;;
38222;SDS011;24024;51.186;6.458;2023-11-19T10:51:01;26.55;;;3.95;;
38222;SDS011;24024;51.186;6.458;2023-11-19T10:53:35;22.20;;;3.75;;
38222;SDS011;24024;51.186;6.458;2023-11-19T10:56:09;21.27;;;3.45;;
38222;SDS011;24024;51.186;6.458;2023-11-19T10:58:37;23.38;;;3.88;;
38222;SDS011;24024;51.186;6.458;2023-11-19T11:01:16;22.83;;;3.78;;
38222;SDS011;24024;51.186;6.458;2023-11-19T11:03:49;26.38;;;4.13;;
38222;SDS011;24024;51.186;6.458;2023-11-19T11:06:22;19.33;;;3.17;;
38222;SDS011;24024;51.186;6.458;2023-11-19T11:08:52;20.13;;;3.50;;
38222;SDS011;24024;51.186;6.458;2023-11-19T11:11:20;20.55;;;3.55;;
38222;SDS011;24024;51.186;6.458;2023-11-19T11:13:47;22.70;;;3.75;;
38222;SDS011;24024;51.186;6.458;2023-11-19T11:16:19;20.90;;;3.38;;
38222;SDS011;24024;51.186;6.458;2023-11-19T11:18:48;20.38;;;3.10;;
38222;SDS011;24024;51.186;6.458;2023-11-19T11:21:17;24.77;;;3.75;;
38222;SDS011;24024;51.186;6.458;2023-11-19T11:26:35;18.23;;;3.38;;
38222;SDS011;24024;51.186;6.458;2023-11-19T11:29:19;22.42;;;3.85;;
38222;SDS011;24024;51.186;6.458;2023-11-19T11:37:49;23.38;;;4.07;;
38222;SDS011;24024;51.186;6.458;2023-11-19T11:40:21;23.23;;;3.50;;
38222;SDS011;24024;51.186;6.458;2023-11-19T11:42:49;22.70;;;3.60;;
38222;SDS011;24024;51.186;6.458;2023-11-19T11:45:18;16.10;;;3.45;;
38222;SDS011;24024;51.186;6.458;2023-11-19T11:48:06;19.27;;;3.33;;
38222;SDS011;24024;51.186;6.458;2023-11-19T11:50:55;25.38;;;3.38;;
38222;SDS011;24024;51.186;6.458;2023-11-19T11:53:26;18.77;;;3.67;;
38222;SDS011;24024;51.186;6.458;2023-11-19T11:55:53;19.45;;;3.63;;
38222;SDS011;24024;51.186;6.458;2023-11-19T11:58:25;21.15;;;2.90;;
38222;SDS011;24024;51.186;6.458;2023-11-19T12:00:53;20.02;;;4.43;;
38222;SDS011;24024;51.186;6.458;2023-11-19T12:03:20;20.58;;;3.08;;
38222;SDS011;24024;51.186;6.458;2023-11-19T12:05:52;22.17;;;3.72;;
38222;SDS011;24024;51.186;6.458;2023-11-19T12:08:24;21.30;;;3.45;;
38222;SDS011;24024;51.186;6.458;2023-11-19T12:10:54;20.33;;;3.13;;
38222;SDS011;24024;51.186;6.458;2023-11-19T12:13:24;22.85;;;3.20;;
38222;SDS011;24024;51.186;6.458;2023-11-19T12:16:09;22.20;;;3.15;;
38222;SDS011;24024;51.186;6.458;2023-11-19T12:18:39;24.42;;;3.60;;
38222;SDS011;24024;51.186;6.458;2023-11-19T12:21:06;19.55;;;3.60;;
38222;SDS011;24024;51.186;6.458;2023-11-19T12:23:43;18.73;;;3.33;;
38222;SDS011;24024;51.186;6.458;2023-11-19T12:26:20;22.95;;;4.22;;
38222;SDS011;24024;51.186;6.458;2023-11-19T12:29:02;22.13;;;3.92;;
38222;SDS011;24024;51.186;6.458;2023-11-19T12:31:35;19.02;;;3.53;;
38222;SDS011;24024;51.186;6.458;2023-11-19T12:34:06;19.42;;;3.25;;
38222;SDS011;24024;51.186;6.458;2023-11-19T12:36:39;17.63;;;3.25;;
38222;SDS011;24024;51.186;6.458;2023-11-19T12:39:06;25.85;;;4.30;;
38222;SDS011;24024;51.186;6.458;2023-11-19T12:41:48;21.52;;;4.38;;
38222;SDS011;24024;51.186;6.458;2023-11-19T12:44:18;22.00;;;3.70;;
38222;SDS011;24024;51.186;6.458;2023-11-19T12:46:58;23.05;;;3.60;;
38222;SDS011;24024;51.186;6.458;2023-11-19T12:49:37;21.95;;;4.50;;
38222;SDS011;24024;51.186;6.458;2023-11-19T12:52:12;19.30;;;3.80;;
38222;SDS011;24024;51.186;6.458;2023-11-19T12:54:39;24.55;;;3.60;;
38222;SDS011;24024;51.186;6.458;2023-11-19T12:57:06;21.33;;;3.75;;
38222;SDS011;24024;51.186;6.458;2023-11-19T12:59:34;17.17;;;3.35;;
38222;SDS011;24024;51.186;6.458;2023-11-19T13:02:01;20.58;;;3.95;;
38222;SDS011;24024;51.186;6.458;2023-11-19T13:04:32;23.50;;;3.90;;
38222;SDS011;24024;51.186;6.458;2023-11-19T13:07:00;19.13;;;3.33;;
38222;SDS011;24024;51.186;6.458;2023-11-19T13:09:30;19.83;;;3.70;;
38222;SDS011;24024;51.186;6.458;2023-11-19T13:11:57;15.85;;;3.20;;
38222;SDS011;24024;51.186;6.458;2023-11-19T13:14:35;20.80;;;3.28;;
38222;SDS011;24024;51.186;6.458;2023-11-19T13:17:06;20.02;;;3.30;;
38222;SDS011;24024;51.186;6.458;2023-11-19T13:19:33;15.25;;;2.90;;
38222;SDS011;24024;51.186;6.458;2023-11-19T13:22:00;13.75;;;3.00;;
38222;SDS011;24024;51.186;6.458;2023-11-19T13:24:26;16.05;;;2.85;;
38222;SDS011;24024;51.186;6.458;2023-11-19T13:26:53;15.05;;;3.35;;
38222;SDS011;24024;51.186;6.458;2023-11-19T13:29:20;18.48;;;3.30;;
38222;SDS011;24024;51.186;6.458;2023-11-19T13:31:47;18.38;;;3.15;;
38222;SDS011;24024;51.186;6.458;2023-11-19T13:34:14;25.33;;;3.75;;
38222;SDS011;24024;51.186;6.458;2023-11-19T13:36:41;18.60;;;3.15;;
38222;SDS011;24024;51.186;6.458;2023-11-19T13:39:10;19.90;;;3.00;;
38222;SDS011;24024;51.186;6.458;2023-11-19T13:44:08;24.20;;;4.13;;
38222;SDS011;24024;51.186;6.458;2023-11-19T13:46:37;21.05;;;3.45;;
38222;SDS011;24024;51.186;6.458;2023-11-19T13:49:04;20.00;;;3.40;;
38222;SDS011;24024;51.186;6.458;2023-11-19T13:51:31;19.55;;;3.60;;
38222;SDS011;24024;51.186;6.458;2023-11-19T13:54:01;18.50;;;3.50;;
38222;SDS011;24024;51.186;6.458;2023-11-19T13:56:28;22.15;;;4.82;;
38222;SDS011;24024;51.186;6.458;2023-11-19T13:58:55;20.42;;;3.33;;
38222;SDS011;24024;51.186;6.458;2023-11-19T14:01:21;22.17;;;4.72;;
38222;SDS011;24024;51.186;6.458;2023-11-19T14:03:51;20.58;;;5.28;;
38222;SDS011;24024;51.186;6.458;2023-11-19T14:06:21;22.98;;;4.00;;
38222;SDS011;24024;51.186;6.458;2023-11-19T14:08:50;23.63;;;4.78;;
38222;SDS011;24024;51.186;6.458;2023-11-19T14:11:19;22.23;;;4.32;;
38222;SDS011;24024;51.186;6.458;2023-11-19T14:13:46;22.45;;;5.00;;
38222;SDS011;24024;51.186;6.458;2023-11-19T14:16:13;24.25;;;5.35;;
38222;SDS011;24024;51.186;6.458;2023-11-19T14:18:40;26.33;;;4.18;;
38222;SDS011;24024;51.186;6.458;2023-11-19T14:21:10;18.27;;;4.90;;
38222;SDS011;24024;51.186;6.458;2023-11-19T14:23:36;22.30;;;4.13;;
38222;SDS011;24024;51.186;6.458;2023-11-19T14:26:03;23.10;;;4.35;;
38222;SDS011;24024;51.186;6.458;2023-11-19T14:28:30;24.08;;;5.30;;
38222;SDS011;24024;51.186;6.458;2023-11-19T14:30:57;24.73;;;4.68;;
38222;SDS011;24024;51.186;6.458;2023-11-19T14:33:24;24.73;;;5.32;;
38222;SDS011;24024;51.186;6.458;2023-11-19T14:35:53;23.67;;;4.55;;
38222;SDS011;24024;51.186;6.458;2023-11-19T14:38:20;23.40;;;4.35;;
38222;SDS011;24024;51.186;6.458;2023-11-19T14:40:49;19.20;;;3.63;;
38222;SDS011;24024;51.186;6.458;2023-11-19T14:43:16;20.33;;;3.60;;
38222;SDS011;24024;51.186;6.458;2023-11-19T14:45:43;16.88;;;2.92;;
38222;SDS011;24024;51.186;6.458;2023-11-19T14:48:15;19.90;;;3.25;;
38222;SDS011;24024;51.186;6.458;2023-11-19T14:50:44;17.52;;;3.50;;
38222;SDS011;24024;51.186;6.458;2023-11-19T14:53:11;18.75;;;4.20;;
38222;SDS011;24024;51.186;6.458;2023-11-19T14:55:38;19.73;;;3.85;;
38222;SDS011;24024;51.186;6.458;2023-11-19T14:58:04;17.05;;;3.22;;
38222;SDS011;24024;51.186;6.458;2023-11-19T15:00:37;25.10;;;3.85;;
38222;SDS011;24024;51.186;6.458;2023-11-19T15:03:06;18.95;;;3.67;;